Time;durP1;ratioP1;P1;durP2;ratioP2;P2;SDS_P1;SDS_P2;PMS_P1;PMS_P2;Temp;Humidity;BMP_temperature;BMP_pressure;BME280_temperature;BME280_humidity;BME280_pressure;Samples;Min_cycle;Max_cycle;Signal;HPM_P1;HPM_P2
2020/12/14 00:01:45;;;;;;;51.43;26.33;;;4.00;99.90;;;;;;6200455;28;20473;-63
2020/12/14 00:04:48;;;;;;;59.47;27.83;;;3.90;99.90;;;;;;6190504;28;20484;-61
2020/12/14 00:07:50;;;;;;;61.30;27.70;;;3.90;99.90;;;;;;6181573;28;20473;-60
2020/12/14 00:10:53;;;;;;;58.97;25.80;;;3.80;99.90;;;;;;6181621;28;20484;-64
2020/12/14 00:13:56;;;;;;;47.77;27.57;;;3.80;99.90;;;;;;6180821;28;20994;-61
2020/12/14 00:16:58;;;;;;;60.23;26.77;;;3.80;99.90;;;;;;6195213;28;20471;-61
2020/12/14 00:20:01;;;;;;;55.60;25.17;;;3.80;99.90;;;;;;6216318;28;20813;-60
2020/12/14 00:23:04;;;;;;;47.20;26.33;;;3.70;99.90;;;;;;6216182;28;20472;-60
2020/12/14 00:26:06;;;;;;;50.90;25.97;;;3.70;99.90;;;;;;6217216;28;20990;-60
2020/12/14 00:29:09;;;;;;;49.73;24.17;;;3.80;99.90;;;;;;6215040;28;20493;-59
2020/12/14 00:32:11;;;;;;;54.83;25.70;;;3.70;99.90;;;;;;6205059;28;20491;-59
2020/12/14 00:35:17;;;;;;;47.23;25.03;;;3.70;99.90;;;;;;6203467;28;20469;-57
2020/12/14 00:38:19;;;;;;;49.97;24.40;;;3.70;99.90;;;;;;6202370;28;20810;-58
2020/12/14 00:41:22;;;;;;;48.47;24.77;;;3.70;99.90;;;;;;6202461;28;20491;-58
2020/12/14 00:44:24;;;;;;;44.27;24.40;;;3.70;99.90;;;;;;6202497;28;20490;-60
2020/12/14 00:47:26;;;;;;;62.00;23.70;;;3.80;99.90;;;;;;6202349;28;20975;-59
2020/12/14 00:50:29;;;;;;;52.93;23.30;;;3.80;99.90;;;;;;6202392;28;20487;-59
2020/12/14 00:53:32;;;;;;;41.00;22.43;;;3.70;99.90;;;;;;6203523;28;20473;-59
2020/12/14 00:56:34;;;;;;;40.93;22.10;;;3.70;99.90;;;;;;6209524;28;20805;-60
2020/12/14 00:59:37;;;;;;;47.97;24.93;;;3.70;99.90;;;;;;6208846;28;20461;-59
2020/12/14 01:02:39;;;;;;;46.90;22.73;;;3.70;99.90;;;;;;6204121;28;20473;-60
2020/12/14 01:05:42;;;;;;;48.40;21.90;;;3.70;99.90;;;;;;6204055;28;20484;-60
2020/12/14 01:08:44;;;;;;;46.53;23.60;;;3.70;99.90;;;;;;6204165;28;20491;-60
2020/12/14 01:11:49;;;;;;;56.03;24.60;;;3.70;99.90;;;;;;6203656;28;20997;-62
2020/12/14 01:14:54;;;;;;;47.67;23.23;;;3.70;99.90;;;;;;6203769;28;20809;-61
2020/12/14 01:17:56;;;;;;;47.43;24.13;;;3.60;99.90;;;;;;6202830;28;20495;-61
2020/12/14 01:20:59;;;;;;;42.70;22.70;;;3.60;99.90;;;;;;6203667;28;20594;-58
2020/12/14 01:24:02;;;;;;;38.87;21.93;;;3.70;99.90;;;;;;6203770;28;20504;-59
2020/12/14 01:27:04;;;;;;;50.30;21.03;;;3.70;99.90;;;;;;6204245;28;20477;-57
2020/12/14 01:30:12;;;;;;;39.63;21.03;;;3.70;99.90;;;;;;6203560;28;20497;-58
2020/12/14 01:33:14;;;;;;;56.87;22.20;;;3.60;99.90;;;;;;6203391;28;20996;-57
2020/12/14 01:36:17;;;;;;;34.00;20.93;;;3.50;99.90;;;;;;6194810;28;20496;-57
2020/12/14 01:39:19;;;;;;;41.43;21.30;;;3.50;99.90;;;;;;6203185;28;20473;-58
2020/12/14 01:42:26;;;;;;;48.23;20.47;;;3.40;99.90;;;;;;6203293;28;20526;-57
2020/12/14 01:45:28;;;;;;;34.63;22.13;;;3.40;99.90;;;;;;6203243;28;20443;-57
2020/12/14 01:48:30;;;;;;;35.33;20.90;;;3.50;99.90;;;;;;6203733;28;20476;-58
2020/12/14 01:51:34;;;;;;;45.00;20.47;;;3.60;99.90;;;;;;6203057;28;20802;-57
2020/12/14 01:54:36;;;;;;;43.37;20.77;;;3.60;99.90;;;;;;6202989;28;20453;-57
2020/12/14 01:57:41;;;;;;;55.47;19.20;;;3.50;99.90;;;;;;6203405;28;20445;-57
2020/12/14 02:00:45;;;;;;;34.83;19.30;;;3.50;99.90;;;;;;6203254;28;20476;-57
2020/12/14 02:03:48;;;;;;;34.43;17.97;;;3.50;99.90;;;;;;6202811;28;20784;-57
2020/12/14 02:06:51;;;;;;;31.43;18.40;;;3.40;99.90;;;;;;6203095;28;20471;-57
2020/12/14 02:09:54;;;;;;;40.00;20.87;;;3.40;99.90;;;;;;6202925;28;20477;-57
2020/12/14 02:12:56;;;;;;;32.07;18.13;;;3.40;99.90;;;;;;6202809;28;20487;-57
2020/12/14 02:15:58;;;;;;;32.37;17.90;;;3.40;99.90;;;;;;6202880;28;20465;-57
2020/12/14 02:19:03;;;;;;;37.40;19.87;;;3.40;99.90;;;;;;6202396;28;20965;-57
2020/12/14 02:22:06;;;;;;;31.37;18.67;;;3.40;99.90;;;;;;6202542;28;20480;-58
2020/12/14 02:25:09;;;;;;;30.03;19.10;;;3.50;99.90;;;;;;6202791;28;20488;-58
2020/12/14 02:28:12;;;;;;;47.97;19.90;;;3.50;99.90;;;;;;6202253;28;20468;-58
2020/12/14 02:31:14;;;;;;;46.70;18.77;;;3.50;99.90;;;;;;6202321;28;20487;-58
2020/12/14 02:34:16;;;;;;;32.00;19.20;;;3.60;99.90;;;;;;6201954;28;20604;-58
2020/12/14 02:37:20;;;;;;;38.93;20.10;;;3.50;99.90;;;;;;6193618;28;20985;-58
2020/12/14 02:40:24;;;;;;;40.33;18.50;;;3.50;99.90;;;;;;6201880;28;20473;-58
2020/12/14 02:43:26;;;;;;;35.90;18.10;;;3.50;99.90;;;;;;6202082;28;20481;-58
2020/12/14 02:46:29;;;;;;;28.70;18.43;;;3.40;99.90;;;;;;6202080;28;20484;-57
2020/12/14 02:49:31;;;;;;;41.03;18.17;;;3.40;99.90;;;;;;6201587;28;20972;-58
2020/12/14 02:52:34;;;;;;;28.77;16.70;;;3.30;99.90;;;;;;6201818;28;20480;-58
2020/12/14 02:55:37;;;;;;;30.77;17.57;;;3.40;99.90;;;;;;6201616;28;20477;-57
2020/12/14 02:58:39;;;;;;;41.63;18.07;;;3.40;99.90;;;;;;6201860;28;20476;-57
2020/12/14 03:01:42;;;;;;;62.23;20.23;;;3.40;99.90;;;;;;6201746;28;20472;-57
2020/12/14 03:04:44;;;;;;;30.60;17.33;;;3.40;99.90;;;;;;6201779;28;20473;-57
2020/12/14 03:07:46;;;;;;;41.80;17.87;;;3.40;99.90;;;;;;6201611;28;20468;-57
2020/12/14 03:10:49;;;;;;;33.83;16.97;;;3.40;99.90;;;;;;6201289;28;20504;-57
2020/12/14 03:13:52;;;;;;;32.70;17.13;;;3.40;99.90;;;;;;6201181;28;20477;-57
2020/12/14 03:16:56;;;;;;;54.73;18.80;;;3.40;99.90;;;;;;6201710;28;20552;-57
2020/12/14 03:19:58;;;;;;;32.60;19.00;;;3.40;99.90;;;;;;6201246;28;20487;-57
2020/12/14 03:23:01;;;;;;;34.60;17.20;;;3.40;99.90;;;;;;6201083;28;20552;-57
2020/12/14 03:26:04;;;;;;;41.33;16.50;;;3.40;99.90;;;;;;6201243;28;20484;-57
2020/12/14 03:29:07;;;;;;;30.67;15.07;;;3.40;99.90;;;;;;6201291;28;20815;-57
2020/12/14 03:32:09;;;;;;;29.87;16.70;;;3.30;99.90;;;;;;6201348;28;20487;-57
2020/12/14 03:35:11;;;;;;;42.13;17.60;;;3.30;99.90;;;;;;6201044;28;20476;-57
2020/12/14 03:38:14;;;;;;;23.40;15.60;;;3.20;99.90;;;;;;6201044;28;20819;-58
2020/12/14 03:41:17;;;;;;;35.43;14.87;;;3.20;99.90;;;;;;6200352;28;20472;-58
2020/12/14 03:44:19;;;;;;;44.00;17.40;;;3.20;99.90;;;;;;6196652;28;20480;-58
2020/12/14 03:47:22;;;;;;;28.90;16.37;;;3.10;99.90;;;;;;6201272;28;20481;-58
2020/12/14 03:50:24;;;;;;;26.50;15.40;;;3.20;99.90;;;;;;6200745;28;20473;-58
2020/12/14 03:53:26;;;;;;;33.30;17.07;;;3.30;99.90;;;;;;6200790;28;20979;-58
2020/12/14 03:56:30;;;;;;;34.30;17.57;;;3.30;99.90;;;;;;6200743;28;20488;-58
2020/12/14 03:59:32;;;;;;;27.20;16.20;;;3.30;99.90;;;;;;6200842;28;20469;-58
2020/12/14 04:02:34;;;;;;;32.93;16.10;;;3.30;99.90;;;;;;6200688;28;20820;-59
2020/12/14 04:05:38;;;;;;;34.33;17.90;;;3.40;99.90;;;;;;6200722;28;20937;-58
2020/12/14 04:08:40;;;;;;;26.17;17.87;;;3.30;99.90;;;;;;6200643;28;20473;-58
2020/12/14 04:11:43;;;;;;;30.93;17.80;;;3.30;99.90;;;;;;6200566;28;20529;-58
2020/12/14 04:14:48;;;;;;;36.67;17.50;;;3.40;99.90;;;;;;6200354;28;20793;-58
2020/12/14 04:17:50;;;;;;;30.10;16.90;;;3.40;99.90;;;;;;6200608;28;20481;-57
2020/12/14 04:20:52;;;;;;;38.37;19.60;;;3.40;99.90;;;;;;6200368;28;20483;-58
2020/12/14 04:23:54;;;;;;;34.67;16.20;;;3.40;99.90;;;;;;6200572;28;20476;-58
2020/12/14 04:26:57;;;;;;;36.83;15.63;;;3.40;99.90;;;;;;6200414;28;20472;-57
2020/12/14 04:29:59;;;;;;;27.93;15.43;;;3.30;99.90;;;;;;6200234;28;20481;-58
2020/12/14 04:33:02;;;;;;;34.40;17.93;;;3.30;99.90;;;;;;6200373;28;20480;-57
2020/12/14 04:36:05;;;;;;;35.90;16.73;;;3.30;99.90;;;;;;6200333;28;20473;-58
2020/12/14 04:39:07;;;;;;;43.97;14.90;;;3.30;99.90;;;;;;6200253;28;20469;-58
2020/12/14 04:42:11;;;;;;;42.93;15.70;;;3.20;99.90;;;;;;6200068;28;20999;-57
2020/12/14 04:45:13;;;;;;;23.77;15.70;;;3.20;99.90;;;;;;6200042;28;20473;-58
2020/12/14 04:48:16;;;;;;;27.70;16.80;;;3.20;99.90;;;;;;6191888;28;20813;-58
2020/12/14 04:51:18;;;;;;;38.37;17.53;;;3.10;99.90;;;;;;6201839;28;20480;-58
2020/12/14 04:54:23;;;;;;;33.10;16.10;;;3.20;99.90;;;;;;6204397;28;20564;-58
2020/12/14 04:57:30;;;;;;;24.30;15.50;;;3.30;99.90;;;;;;6204519;28;20487;-58
2020/12/14 05:00:36;;;;;;;21.53;14.87;;;3.30;99.90;;;;;;6204270;28;20544;-58
2020/12/14 05:03:38;;;;;;;29.57;16.20;;;3.30;99.90;;;;;;6204339;28;20455;-58
2020/12/14 05:06:50;;;;;;;33.20;16.40;;;3.30;99.90;;;;;;6204366;28;20445;-58
2020/12/14 05:10:00;;;;;;;24.00;14.50;;;3.30;99.90;;;;;;6204240;28;20469;-58
2020/12/14 05:13:12;;;;;;;32.00;15.27;;;3.30;99.90;;;;;;6203913;28;20819;-58
2020/12/14 05:16:14;;;;;;;24.67;14.30;;;3.30;99.90;;;;;;6204115;28;20473;-59
2020/12/14 05:19:21;;;;;;;38.10;15.60;;;3.30;99.90;;;;;;6203925;28;20810;-58
2020/12/14 05:22:24;;;;;;;20.00;14.80;;;3.30;99.90;;;;;;6204348;28;20487;-58
2020/12/14 05:25:27;;;;;;;44.37;15.20;;;3.30;99.90;;;;;;6203789;28;20535;-58
2020/12/14 05:28:30;;;;;;;30.97;16.27;;;3.30;99.90;;;;;;6203829;28;20803;-59
2020/12/14 05:31:32;;;;;;;26.00;15.43;;;3.30;99.90;;;;;;6203606;28;20485;-58
2020/12/14 05:34:36;;;;;;;36.00;16.23;;;3.30;99.90;;;;;;6203742;28;20469;-58
2020/12/14 05:37:40;;;;;;;22.93;14.20;;;3.30;99.90;;;;;;6203627;28;20592;-59
2020/12/14 05:40:45;;;;;;;21.43;14.77;;;3.30;99.90;;;;;;6203325;28;20992;-56
2020/12/14 05:43:57;;;;;;;24.70;16.70;;;3.30;99.90;;;;;;6203513;28;20816;-57
2020/12/14 05:46:59;;;;;;;23.47;15.43;;;3.30;99.90;;;;;;6203792;28;20477;-57
2020/12/14 05:50:07;;;;;;;26.37;16.17;;;3.40;99.90;;;;;;6202868;28;20563;-58
2020/12/14 05:53:13;;;;;;;30.27;14.90;;;3.50;99.90;;;;;;6189869;28;20972;-58
2020/12/14 05:56:17;;;;;;;24.00;15.53;;;3.50;99.90;;;;;;6202917;28;20492;-58
2020/12/14 05:59:21;;;;;;;31.43;19.13;;;3.50;99.90;;;;;;6203477;28;20469;-58
2020/12/14 06:02:25;;;;;;;45.57;20.63;;;3.50;99.90;;;;;;6202203;28;20477;-58
2020/12/14 06:05:29;;;;;;;32.40;17.80;;;3.50;99.90;;;;;;6202581;28;20472;-58
2020/12/14 06:09:02;;;;;;;27.57;17.60;;;3.50;99.90;;;;;;6202759;28;20473;-58
2020/12/14 06:12:05;;;;;;;27.13;15.13;;;3.50;99.90;;;;;;6202450;28;20829;-59
2020/12/14 06:15:11;;;;;;;30.50;16.80;;;3.50;99.90;;;;;;6202286;28;20488;-59
2020/12/14 06:18:13;;;;;;;26.97;16.30;;;3.40;99.90;;;;;;6202482;28;20465;-58
2020/12/14 06:21:19;;;;;;;21.47;13.77;;;3.50;99.90;;;;;;6202266;28;20469;-58
2020/12/14 06:24:25;;;;;;;20.27;14.67;;;3.50;99.90;;;;;;6202886;28;20480;-57
2020/12/14 06:27:28;;;;;;;35.87;14.87;;;3.40;99.90;;;;;;6202769;28;20477;-57
2020/12/14 06:30:33;;;;;;;34.53;15.37;;;3.40;99.90;;;;;;6202018;28;20778;-58
2020/12/14 06:33:37;;;;;;;22.50;15.00;;;3.40;99.90;;;;;;6200161;28;20536;-59
2020/12/14 06:36:41;;;;;;;30.07;17.40;;;3.50;99.90;;;;;;6200321;28;20519;-59
2020/12/14 06:39:45;;;;;;;31.47;16.10;;;3.50;99.90;;;;;;6200105;28;20453;-58
2020/12/14 06:42:48;;;;;;;29.13;16.53;;;3.50;99.90;;;;;;6200466;28;20529;-59
2020/12/14 06:45:55;;;;;;;25.13;16.40;;;3.40;99.90;;;;;;6201258;28;20464;-59
2020/12/14 06:48:58;;;;;;;24.33;14.50;;;3.50;99.90;;;;;;6201604;28;20818;-59
2020/12/14 06:52:00;;;;;;;19.90;13.90;;;3.50;99.90;;;;;;6202061;28;20619;-58
2020/12/14 06:55:03;;;;;;;21.77;15.00;;;3.50;99.90;;;;;;6192670;28;20798;-58
2020/12/14 06:58:09;;;;;;;26.33;14.00;;;3.60;99.90;;;;;;6201674;28;20469;-59
2020/12/14 07:01:38;;;;;;;17.63;12.83;;;3.50;99.90;;;;;;6202760;28;20497;-58
2020/12/14 07:04:42;;;;;;;20.03;14.50;;;3.50;99.90;;;;;;6200756;28;20487;-59
2020/12/14 07:07:52;;;;;;;19.83;13.27;;;3.60;99.90;;;;;;6200141;28;20465;-58
2020/12/14 07:11:10;;;;;;;20.47;14.97;;;3.60;99.90;;;;;;6199804;28;20556;-59
2020/12/14 07:14:27;;;;;;;25.53;16.47;;;3.60;99.90;;;;;;6198932;28;20477;-59
2020/12/14 07:17:30;;;;;;;33.63;15.07;;;3.70;99.90;;;;;;6200000;28;20481;-59
2020/12/14 07:20:34;;;;;;;24.43;14.90;;;3.70;99.90;;;;;;6200960;28;20485;-59
2020/12/14 07:23:37;;;;;;;23.50;16.00;;;3.70;99.90;;;;;;6201583;28;20980;-58
2020/12/14 07:26:39;;;;;;;20.83;15.07;;;3.70;99.90;;;;;;6201652;28;20523;-59
2020/12/14 07:29:41;;;;;;;21.40;13.80;;;3.70;99.90;;;;;;6201340;28;20476;-59
2020/12/14 07:32:46;;;;;;;24.43;14.87;;;3.70;99.90;;;;;;6201253;28;20477;-60
2020/12/14 07:35:48;;;;;;;28.03;15.77;;;3.80;99.90;;;;;;6200629;28;20481;-58
2020/12/14 07:38:53;;;;;;;25.10;15.40;;;3.80;99.90;;;;;;6201183;28;20818;-60
2020/12/14 07:41:55;;;;;;;26.87;16.50;;;3.90;99.90;;;;;;6200497;28;20476;-59
2020/12/14 07:45:06;;;;;;;26.20;16.20;;;3.90;99.90;;;;;;6201058;28;20473;-59
2020/12/14 07:48:09;;;;;;;28.03;17.13;;;4.00;99.90;;;;;;6201851;28;20790;-59
2020/12/14 07:51:12;;;;;;;23.97;15.77;;;4.00;99.90;;;;;;6200569;28;20487;-59
2020/12/14 07:54:15;;;;;;;22.67;16.43;;;4.10;99.90;;;;;;6201108;28;20480;-59
2020/12/14 07:57:29;;;;;;;30.90;18.03;;;4.10;99.90;;;;;;6200956;28;20492;-59
2020/12/14 08:00:34;;;;;;;27.93;18.33;;;4.10;99.90;;;;;;6200541;28;21015;-58
2020/12/14 08:03:37;;;;;;;27.53;16.00;;;4.10;99.90;;;;;;6200801;28;20452;-58
2020/12/14 08:06:42;;;;;;;23.77;16.57;;;4.20;99.90;;;;;;6200850;28;20509;-59
2020/12/14 08:09:46;;;;;;;40.83;20.53;;;4.20;99.90;;;;;;6201447;28;20642;-58
2020/12/14 08:12:49;;;;;;;28.53;17.20;;;4.30;99.90;;;;;;6200788;28;20489;-58
2020/12/14 08:15:52;;;;;;;29.03;17.37;;;4.30;99.90;;;;;;6200501;28;20477;-59
2020/12/14 08:18:57;;;;;;;22.90;16.03;;;4.40;99.90;;;;;;6200424;28;20503;-58
2020/12/14 08:22:01;;;;;;;25.90;17.00;;;4.50;99.90;;;;;;6200724;28;20516;-57
2020/12/14 08:25:03;;;;;;;28.23;16.43;;;4.50;99.90;;;;;;6200851;28;20551;-58
2020/12/14 08:28:05;;;;;;;26.40;18.57;;;4.60;99.90;;;;;;6205810;28;20465;-58
2020/12/14 08:31:08;;;;;;;24.17;17.70;;;4.70;99.90;;;;;;6204962;28;20844;-59
2020/12/14 08:34:12;;;;;;;23.87;14.70;;;4.70;99.90;;;;;;6205263;28;20573;-58
2020/12/14 08:37:18;;;;;;;23.37;16.10;;;4.70;99.90;;;;;;6204727;28;20984;-58
2020/12/14 08:40:21;;;;;;;25.10;16.37;;;4.70;99.90;;;;;;6205121;28;20476;-60
2020/12/14 08:43:25;;;;;;;27.10;18.57;;;4.70;99.90;;;;;;6204771;28;20559;-58
2020/12/14 08:46:29;;;;;;;25.13;16.10;;;4.70;99.90;;;;;;6204995;28;20795;-58
2020/12/14 08:49:32;;;;;;;26.80;15.83;;;4.70;99.90;;;;;;6204360;28;20542;-57
2020/12/14 08:52:35;;;;;;;26.93;16.23;;;4.70;99.90;;;;;;6204543;28;20500;-59
2020/12/14 08:55:38;;;;;;;23.67;15.60;;;4.80;99.90;;;;;;6204704;28;20479;-59
2020/12/14 08:58:53;;;;;;;20.07;15.27;;;4.80;99.90;;;;;;6188523;28;20835;-57
2020/12/14 09:01:57;;;;;;;16.77;14.17;;;4.80;99.90;;;;;;6196015;28;20487;-59
2020/12/14 09:05:14;;;;;;;19.33;14.00;;;4.90;99.90;;;;;;6192965;28;20787;-57
2020/12/14 09:08:17;;;;;;;25.20;15.33;;;4.90;99.90;;;;;;6180247;28;20481;-61
2020/12/14 09:11:19;;;;;;;26.97;16.63;;;4.90;99.90;;;;;;6179972;28;20474;-63
2020/12/14 09:14:24;;;;;;;29.10;17.57;;;4.90;99.90;;;;;;6192798;28;20953;-60
2020/12/14 09:17:28;;;;;;;31.57;19.70;;;4.90;99.90;;;;;;6203655;28;20901;-61
2020/12/14 09:20:31;;;;;;;27.13;19.00;;;4.90;99.90;;;;;;6203677;28;20476;-60
2020/12/14 09:23:34;;;;;;;26.50;18.83;;;5.00;99.90;;;;;;6203700;28;20469;-59
2020/12/14 09:26:36;;;;;;;25.80;17.93;;;5.00;99.90;;;;;;6203766;28;20622;-59
2020/12/14 09:29:40;;;;;;;23.47;16.30;;;5.10;99.90;;;;;;6203453;28;20473;-60
2020/12/14 09:32:43;;;;;;;26.27;17.57;;;5.00;99.90;;;;;;6180070;28;20541;-63
2020/12/14 09:35:46;;;;;;;28.23;18.10;;;5.20;99.90;;;;;;6179279;28;20478;-66
2020/12/14 09:38:49;;;;;;;31.17;18.63;;;5.20;99.90;;;;;;6178371;28;20489;-60
2020/12/14 09:41:52;;;;;;;27.87;17.47;;;5.30;99.90;;;;;;6179009;28;20473;-55
2020/12/14 09:44:54;;;;;;;25.07;18.90;;;5.30;99.90;;;;;;6178869;28;20466;-58
2020/12/14 09:47:56;;;;;;;29.73;17.57;;;5.40;99.90;;;;;;6178798;28;20470;-65
2020/12/14 09:51:00;;;;;;;21.93;17.57;;;5.50;99.90;;;;;;6200702;28;20504;-56
2020/12/14 09:54:03;;;;;;;24.33;17.87;;;5.50;99.90;;;;;;6213023;28;20612;-60
2020/12/14 09:57:05;;;;;;;27.00;19.20;;;5.50;99.90;;;;;;6209812;28;20623;-58
2020/12/14 10:00:07;;;;;;;29.37;20.17;;;5.60;99.90;;;;;;6214200;28;20479;-56
2020/12/14 10:03:09;;;;;;;27.33;19.03;;;5.50;99.90;;;;;;6214286;28;20470;-55
2020/12/14 10:06:13;;;;;;;26.60;17.90;;;5.60;99.90;;;;;;6212120;28;20480;-56
2020/12/14 10:09:16;;;;;;;30.20;19.00;;;5.60;99.90;;;;;;6206804;28;20469;-59
2020/12/14 10:12:20;;;;;;;28.70;19.00;;;5.50;99.90;;;;;;6202221;28;20489;-59
2020/12/14 10:15:23;;;;;;;30.50;19.20;;;5.50;99.90;;;;;;6201971;28;20484;-57
2020/12/14 10:18:25;;;;;;;28.23;18.93;;;5.50;99.90;;;;;;6201607;28;20485;-56
2020/12/14 10:21:30;;;;;;;26.63;19.80;;;5.60;99.90;;;;;;6201543;28;20792;-59
2020/12/14 10:24:32;;;;;;;27.10;19.97;;;5.60;99.90;;;;;;6201470;28;20457;-57
2020/12/14 10:27:35;;;;;;;31.20;19.50;;;5.60;99.90;;;;;;6201495;28;20765;-61
2020/12/14 10:30:38;;;;;;;30.60;20.00;;;5.60;99.90;;;;;;6201361;28;20492;-60
2020/12/14 10:33:50;;;;;;;29.90;20.40;;;5.70;99.90;;;;;;6201394;28;20461;-57
2020/12/14 10:36:53;;;;;;;24.27;17.70;;;5.60;99.90;;;;;;6201598;28;20461;-59
2020/12/14 10:39:56;;;;;;;27.93;19.80;;;5.70;99.90;;;;;;6200903;28;21023;-59
2020/12/14 10:42:58;;;;;;;26.97;19.73;;;5.60;99.90;;;;;;6201525;28;20464;-57
2020/12/14 10:46:00;;;;;;;29.27;18.90;;;5.70;99.90;;;;;;6201066;28;20469;-58
2020/12/14 10:49:03;;;;;;;27.33;19.70;;;5.80;99.90;;;;;;6200710;28;20960;-57
2020/12/14 10:52:06;;;;;;;29.13;19.33;;;5.70;99.90;;;;;;6201654;28;20476;-61
2020/12/14 10:55:09;;;;;;;26.60;17.93;;;5.70;99.90;;;;;;6201509;28;20809;-61
2020/12/14 10:58:11;;;;;;;27.80;20.30;;;5.70;99.90;;;;;;6201255;28;20496;-59
2020/12/14 11:01:14;;;;;;;28.93;20.70;;;5.70;99.90;;;;;;6201860;28;20484;-60
2020/12/14 11:04:16;;;;;;;28.70;19.97;;;5.60;99.90;;;;;;6200979;28;20893;-59
2020/12/14 11:07:20;;;;;;;29.20;19.40;;;5.60;99.90;;;;;;6201645;28;20487;-58
2020/12/14 11:10:22;;;;;;;25.00;19.33;;;5.60;99.90;;;;;;6200889;28;20835;-59
2020/12/14 11:13:24;;;;;;;25.27;18.67;;;5.60;99.90;;;;;;6201135;28;20960;-57
2020/12/14 11:16:27;;;;;;;24.50;18.70;;;5.60;99.90;;;;;;6201238;28;20469;-57
2020/12/14 11:19:29;;;;;;;27.40;20.50;;;5.60;99.90;;;;;;6200583;28;20492;-58
2020/12/14 11:22:35;;;;;;;27.33;19.43;;;5.50;99.90;;;;;;6198987;28;20465;-58
2020/12/14 11:25:38;;;;;;;33.03;21.97;;;5.50;99.90;;;;;;6198899;28;20487;-58
2020/12/14 11:28:41;;;;;;;28.87;21.03;;;5.50;99.90;;;;;;6198644;28;20473;-58
2020/12/14 11:31:44;;;;;;;30.27;19.80;;;5.40;99.90;;;;;;6198795;28;20477;-57
2020/12/14 11:34:46;;;;;;;35.77;21.97;;;5.50;99.90;;;;;;6200166;28;20842;-58
2020/12/14 11:37:50;;;;;;;25.80;20.07;;;5.50;99.90;;;;;;6200449;28;20473;-58
2020/12/14 11:40:52;;;;;;;27.87;19.10;;;5.60;99.90;;;;;;6200168;28;20961;-61
2020/12/14 11:43:54;;;;;;;30.10;20.27;;;5.70;99.90;;;;;;6200446;28;20481;-60
2020/12/14 11:46:57;;;;;;;25.57;19.50;;;5.70;99.90;;;;;;6200509;28;20473;-56
2020/12/14 11:49:59;;;;;;;33.00;22.33;;;5.70;99.90;;;;;;6200783;28;20481;-59
2020/12/14 11:53:02;;;;;;;30.97;21.07;;;5.70;99.90;;;;;;6200180;28;20560;-64
2020/12/14 11:56:07;;;;;;;30.23;20.30;;;5.70;99.90;;;;;;6200027;28;20483;-62
2020/12/14 11:59:09;;;;;;;28.73;20.20;;;5.70;99.90;;;;;;6199874;28;20476;-61
2020/12/14 12:02:13;;;;;;;29.20;20.37;;;5.70;99.90;;;;;;6203055;28;20481;-60
2020/12/14 12:05:16;;;;;;;31.27;19.10;;;5.60;99.90;;;;;;6204440;28;20464;-61
2020/12/14 12:08:19;;;;;;;27.80;20.50;;;5.70;99.90;;;;;;6206783;28;20481;-61
2020/12/14 12:11:22;;;;;;;22.37;18.40;;;5.70;99.90;;;;;;6216083;28;20492;-61
2020/12/14 12:14:24;;;;;;;24.87;18.30;;;5.70;99.90;;;;;;6214484;28;20587;-61
2020/12/14 12:17:26;;;;;;;26.93;20.07;;;5.70;99.90;;;;;;6228654;28;20472;-61
2020/12/14 12:20:29;;;;;;;27.47;19.73;;;5.70;99.90;;;;;;6216974;28;20479;-60
2020/12/14 12:23:32;;;;;;;26.20;19.60;;;5.80;99.90;;;;;;6223092;28;20530;-61
2020/12/14 12:26:34;;;;;;;30.40;19.43;;;5.70;99.90;;;;;;6217801;28;20487;-61
2020/12/14 12:29:37;;;;;;;26.67;19.47;;;5.60;99.90;;;;;;6228580;28;20467;-61
2020/12/14 12:32:39;;;;;;;27.00;19.30;;;5.70;99.90;;;;;;6228501;28;20589;-65
2020/12/14 12:35:41;;;;;;;30.67;19.73;;;5.70;99.90;;;;;;6228465;28;20482;-61
2020/12/14 12:38:45;;;;;;;28.30;19.07;;;5.60;99.90;;;;;;6228486;28;20490;-61
2020/12/14 12:41:49;;;;;;;28.60;19.57;;;5.40;99.90;;;;;;6228582;28;20852;-61
2020/12/14 12:44:51;;;;;;;27.70;18.63;;;5.40;99.90;;;;;;6228452;28;20472;-62
2020/12/14 12:47:54;;;;;;;25.17;18.17;;;5.30;99.90;;;;;;6228376;28;20569;-61
2020/12/14 12:50:58;;;;;;;26.40;18.03;;;5.30;99.90;;;;;;6228356;28;21000;-61
2020/12/14 12:54:03;;;;;;;33.83;19.03;;;5.20;99.90;;;;;;6228245;28;20471;-62
2020/12/14 12:57:06;;;;;;;28.73;18.67;;;5.20;99.90;;;;;;6212592;28;20587;-61
2020/12/14 13:00:09;;;;;;;30.60;17.57;;;5.10;99.90;;;;;;6203567;28;20577;-60
2020/12/14 13:03:11;;;;;;;29.73;18.00;;;4.90;99.90;;;;;;6203793;28;20481;-61
2020/12/14 13:06:14;;;;;;;27.07;19.07;;;4.80;99.90;;;;;;6203249;28;20839;-61
2020/12/14 13:09:17;;;;;;;25.30;17.97;;;4.70;99.90;;;;;;6203667;28;20544;-62
2020/12/14 13:12:22;;;;;;;34.37;20.93;;;4.70;99.90;;;;;;6203456;28;20822;-67
2020/12/14 13:15:27;;;;;;;26.43;17.53;;;4.80;99.90;;;;;;6203279;28;20522;-65
2020/12/14 13:18:29;;;;;;;29.00;19.20;;;4.80;99.90;;;;;;6203556;28;20488;-64
2020/12/14 13:21:32;;;;;;;25.60;16.90;;;4.80;99.90;;;;;;6200127;28;20626;-61
2020/12/14 13:24:38;;;;;;;26.63;17.40;;;4.80;99.90;;;;;;6203450;28;20449;-61
2020/12/14 13:27:40;;;;;;;25.27;19.20;;;4.90;99.90;;;;;;6203710;28;20453;-65
2020/12/14 13:30:42;;;;;;;29.10;18.97;;;4.80;99.90;;;;;;6203328;28;20484;-63
2020/12/14 13:33:45;;;;;;;28.77;19.27;;;4.90;99.90;;;;;;6203395;28;20459;-65
2020/12/14 13:36:51;;;;;;;34.63;21.33;;;4.90;99.90;;;;;;6203535;28;20438;-63
2020/12/14 13:39:54;;;;;;;26.07;19.97;;;5.00;99.90;;;;;;6203786;28;20475;-61
2020/12/14 13:42:56;;;;;;;44.10;25.90;;;4.90;99.90;;;;;;6203281;28;20783;-64
2020/12/14 13:45:58;;;;;;;32.63;19.70;;;4.90;99.90;;;;;;6202964;28;20788;-64
2020/12/14 13:49:01;;;;;;;32.00;23.83;;;4.80;99.90;;;;;;6202898;28;20972;-61
2020/12/14 13:52:03;;;;;;;28.90;22.13;;;4.70;99.90;;;;;;6203019;28;20465;-64
2020/12/14 13:55:06;;;;;;;29.27;20.37;;;4.80;99.90;;;;;;6202944;28;21014;-63
2020/12/14 13:58:08;;;;;;;33.90;21.63;;;4.90;99.90;;;;;;6197985;28;20480;-62
2020/12/14 14:01:11;;;;;;;29.00;21.30;;;5.00;99.90;;;;;;6202762;28;21084;-61
2020/12/14 14:04:14;;;;;;;25.50;19.07;;;5.00;99.90;;;;;;6202453;28;20952;-61
2020/12/14 14:07:16;;;;;;;30.50;19.30;;;5.00;99.90;;;;;;6203185;28;20479;-61
2020/12/14 14:10:19;;;;;;;29.67;19.83;;;5.10;99.90;;;;;;6202419;28;20821;-64
2020/12/14 14:13:21;;;;;;;31.70;20.93;;;5.20;99.90;;;;;;6202763;28;20495;-61
2020/12/14 14:16:24;;;;;;;32.77;19.93;;;5.20;99.90;;;;;;6184701;28;20469;-63
2020/12/14 14:19:26;;;;;;;30.50;20.87;;;5.10;99.90;;;;;;6178621;28;20501;-61
2020/12/14 14:22:29;;;;;;;32.47;21.60;;;5.10;99.90;;;;;;6166846;28;20950;-61
2020/12/14 14:25:32;;;;;;;32.37;19.90;;;5.20;99.90;;;;;;6177741;28;20556;-65
2020/12/14 14:28:35;;;;;;;32.90;20.73;;;5.10;99.90;;;;;;6178125;28;20473;-61
2020/12/14 14:31:37;;;;;;;28.40;19.30;;;5.20;99.90;;;;;;6177965;28;20493;-65
2020/12/14 14:34:39;;;;;;;36.47;22.70;;;5.20;99.90;;;;;;6177816;28;20478;-61
2020/12/14 14:37:44;;;;;;;47.40;29.27;;;5.20;99.90;;;;;;6178056;28;20485;-60
2020/12/14 14:40:47;;;;;;;53.30;31.03;;;5.20;99.90;;;;;;6177435;28;20899;-58
2020/12/14 14:43:50;;;;;;;61.10;35.50;;;5.10;99.90;;;;;;6177923;28;20482;-58
2020/12/14 14:46:54;;;;;;;50.87;29.67;;;5.00;99.90;;;;;;6177706;28;20490;-61
2020/12/14 14:49:56;;;;;;;55.03;30.53;;;4.90;99.90;;;;;;6177711;28;20478;-60
2020/12/14 14:53:01;;;;;;;49.80;29.50;;;4.80;99.90;;;;;;6177670;28;20735;-58
2020/12/14 14:56:04;;;;;;;78.90;44.67;;;4.70;99.90;;;;;;6177237;28;20493;-59
2020/12/14 14:59:07;;;;;;;84.83;45.73;;;4.60;99.90;;;;;;6189263;28;20555;-61
2020/12/14 15:02:09;;;;;;;52.30;34.30;;;4.70;99.90;;;;;;6201069;28;20884;-59
2020/12/14 15:05:11;;;;;;;43.67;29.40;;;4.70;99.90;;;;;;6201055;28;21039;-63
2020/12/14 15:08:13;;;;;;;50.57;30.57;;;4.60;99.90;;;;;;6201065;28;20476;-61
2020/12/14 15:11:24;;;;;;;45.23;26.30;;;4.60;99.90;;;;;;6201321;28;20508;-61
2020/12/14 15:14:26;;;;;;;54.20;29.67;;;4.70;99.90;;;;;;6200986;28;20563;-60
2020/12/14 15:17:29;;;;;;;41.90;26.17;;;4.70;99.90;;;;;;6201206;28;20473;-59
2020/12/14 15:20:31;;;;;;;53.63;31.30;;;4.60;99.90;;;;;;6200745;28;20488;-59
2020/12/14 15:23:34;;;;;;;40.90;24.43;;;4.60;99.90;;;;;;6200965;28;20469;-63
2020/12/14 15:26:37;;;;;;;36.43;24.37;;;4.60;99.90;;;;;;6191970;28;20825;-62
2020/12/14 15:29:40;;;;;;;39.90;22.93;;;4.60;99.90;;;;;;6200799;28;20480;-59
2020/12/14 15:32:42;;;;;;;39.23;23.10;;;4.60;99.90;;;;;;6200690;28;20504;-61
2020/12/14 15:35:48;;;;;;;34.10;23.13;;;4.50;99.90;;;;;;6199951;28;20611;-60
2020/12/14 15:38:52;;;;;;;35.43;20.83;;;4.40;99.90;;;;;;6200861;28;20988;-59
2020/12/14 15:41:55;;;;;;;36.17;22.23;;;4.50;99.90;;;;;;6200515;28;20882;-61